sensor_id;sensor_type;location;lat;lon;timestamp;P1;durP1;ratioP1;P2;durP2;ratioP2
6953;SDS011;3516;47.980;8.808;2023-07-20T04:16:32;1.75;;;1.75;;
6953;SDS011;3516;47.980;8.808;2023-07-20T04:18:59;1.73;;;1.70;;
6953;SDS011;3516;47.980;8.808;2023-07-20T04:21:27;1.98;;;1.98;;
6953;SDS011;3516;47.980;8.808;2023-07-20T04:23:55;2.20;;;2.10;;
6953;SDS011;3516;47.980;8.808;2023-07-20T04:26:22;1.80;;;1.70;;
6953;SDS011;3516;47.980;8.808;2023-07-20T04:28:49;1.70;;;1.70;;
6953;SDS011;3516;47.980;8.808;2023-07-20T04:31:17;1.70;;;1.70;;
6953;SDS011;3516;47.980;8.808;2023-07-20T04:33:46;2.30;;;1.85;;
6953;SDS011;3516;47.980;8.808;2023-07-20T04:36:13;2.17;;;1.98;;
6953;SDS011;3516;47.980;8.808;2023-07-20T04:38:44;1.80;;;1.80;;
6953;SDS011;3516;47.980;8.808;2023-07-20T04:41:11;1.80;;;1.70;;
6953;SDS011;3516;47.980;8.808;2023-07-20T04:43:40;1.75;;;1.67;;
6953;SDS011;3516;47.980;8.808;2023-07-20T04:46:07;1.80;;;1.70;;
6953;SDS011;3516;47.980;8.808;2023-07-20T04:48:35;2.10;;;2.00;;
6953;SDS011;3516;47.980;8.808;2023-07-20T04:51:03;1.60;;;1.60;;
6953;SDS011;3516;47.980;8.808;2023-07-20T04:53:30;1.70;;;1.60;;
6953;SDS011;3516;47.980;8.808;2023-07-20T04:55:57;2.25;;;1.63;;
6953;SDS011;3516;47.980;8.808;2023-07-20T04:58:24;1.67;;;1.67;;
6953;SDS011;3516;47.980;8.808;2023-07-20T05:00:51;1.77;;;1.67;;
6953;SDS011;3516;47.980;8.808;2023-07-20T05:03:18;1.90;;;1.80;;
6953;SDS011;3516;47.980;8.808;2023-07-20T05:05:46;1.90;;;1.80;;
6953;SDS011;3516;47.980;8.808;2023-07-20T05:08:14;1.38;;;1.38;;
6953;SDS011;3516;47.980;8.808;2023-07-20T05:10:42;1.77;;;1.67;;
6953;SDS011;3516;47.980;8.808;2023-07-20T05:13:09;1.60;;;1.60;;
6953;SDS011;3516;47.980;8.808;2023-07-20T05:15:36;1.80;;;1.70;;
6953;SDS011;3516;47.980;8.808;2023-07-20T05:18:03;1.30;;;1.30;;
6953;SDS011;3516;47.980;8.808;2023-07-20T05:20:30;1.92;;;1.45;;
6953;SDS011;3516;47.980;8.808;2023-07-20T05:22:58;1.58;;;1.58;;
6953;SDS011;3516;47.980;8.808;2023-07-20T05:25:27;1.77;;;1.67;;
6953;SDS011;3516;47.980;8.808;2023-07-20T05:27:54;1.58;;;1.58;;
6953;SDS011;3516;47.980;8.808;2023-07-20T05:30:21;1.90;;;1.80;;
6953;SDS011;3516;47.980;8.808;2023-07-20T05:32:48;1.73;;;1.63;;
6953;SDS011;3516;47.980;8.808;2023-07-20T05:35:17;1.58;;;1.58;;
6953;SDS011;3516;47.980;8.808;2023-07-20T05:37:44;1.45;;;1.45;;
6953;SDS011;3516;47.980;8.808;2023-07-20T05:40:11;1.73;;;1.63;;
6953;SDS011;3516;47.980;8.808;2023-07-20T05:42:41;1.50;;;1.50;;
6953;SDS011;3516;47.980;8.808;2023-07-20T05:45:08;1.70;;;1.70;;
6953;SDS011;3516;47.980;8.808;2023-07-20T05:47:35;1.65;;;1.55;;
6953;SDS011;3516;47.980;8.808;2023-07-20T05:50:02;2.00;;;1.90;;
6953;SDS011;3516;47.980;8.808;2023-07-20T05:52:29;2.13;;;2.08;;
6953;SDS011;3516;47.980;8.808;2023-07-20T05:54:56;1.80;;;1.70;;
6953;SDS011;3516;47.980;8.808;2023-07-20T05:57:23;2.17;;;2.08;;
6953;SDS011;3516;47.980;8.808;2023-07-20T05:59:52;2.00;;;1.90;;
6953;SDS011;3516;47.980;8.808;2023-07-20T06:02:19;1.73;;;1.63;;
6953;SDS011;3516;47.980;8.808;2023-07-20T06:04:46;2.00;;;1.90;;
6953;SDS011;3516;47.980;8.808;2023-07-20T06:07:13;1.75;;;1.73;;
6953;SDS011;3516;47.980;8.808;2023-07-20T06:09:40;1.75;;;1.65;;
6953;SDS011;3516;47.980;8.808;2023-07-20T06:12:08;1.50;;;1.50;;
6953;SDS011;3516;47.980;8.808;2023-07-20T06:14:35;1.77;;;1.67;;
6953;SDS011;3516;47.980;8.808;2023-07-20T06:17:05;1.48;;;1.48;;
6953;SDS011;3516;47.980;8.808;2023-07-20T06:19:32;1.40;;;1.40;;
6953;SDS011;3516;47.980;8.808;2023-07-20T06:21:59;1.50;;;1.50;;
6953;SDS011;3516;47.980;8.808;2023-07-20T06:24:26;1.80;;;1.70;;
6953;SDS011;3516;47.980;8.808;2023-07-20T06:26:53;1.55;;;1.50;;
6953;SDS011;3516;47.980;8.808;2023-07-20T06:29:20;1.85;;;1.75;;
6953;SDS011;3516;47.980;8.808;2023-07-20T06:31:47;1.65;;;1.63;;
6953;SDS011;3516;47.980;8.808;2023-07-20T06:34:16;2.30;;;2.20;;
6953;SDS011;3516;47.980;8.808;2023-07-20T06:36:43;2.08;;;1.98;;
6953;SDS011;3516;47.980;8.808;2023-07-20T06:39:10;2.30;;;2.10;;
6953;SDS011;3516;47.980;8.808;2023-07-20T06:41:37;3.10;;;2.10;;
6953;SDS011;3516;47.980;8.808;2023-07-20T06:44:04;1.90;;;1.80;;
6953;SDS011;3516;47.980;8.808;2023-07-20T06:46:31;2.00;;;1.90;;
6953;SDS011;3516;47.980;8.808;2023-07-20T06:48:58;1.83;;;1.73;;
6953;SDS011;3516;47.980;8.808;2023-07-20T06:51:26;2.35;;;1.73;;
6953;SDS011;3516;47.980;8.808;2023-07-20T06:53:53;2.20;;;1.48;;
6953;SDS011;3516;47.980;8.808;2023-07-20T06:56:20;1.67;;;1.58;;
6953;SDS011;3516;47.980;8.808;2023-07-20T06:58:47;1.75;;;1.65;;
6953;SDS011;3516;47.980;8.808;2023-07-20T07:01:14;4.50;;;1.88;;
6953;SDS011;3516;47.980;8.808;2023-07-20T07:03:42;1.50;;;1.38;;
6953;SDS011;3516;47.980;8.808;2023-07-20T07:06:10;2.20;;;1.67;;
6953;SDS011;3516;47.980;8.808;2023-07-20T07:08:39;1.92;;;1.80;;
6953;SDS011;3516;47.980;8.808;2023-07-20T07:11:06;1.80;;;1.42;;
6953;SDS011;3516;47.980;8.808;2023-07-20T07:13:34;1.35;;;1.35;;
6953;SDS011;3516;47.980;8.808;2023-07-20T07:16:01;1.45;;;1.45;;
6953;SDS011;3516;47.980;8.808;2023-07-20T07:18:28;1.20;;;1.20;;
6953;SDS011;3516;47.980;8.808;2023-07-20T07:20:56;1.92;;;1.60;;
6953;SDS011;3516;47.980;8.808;2023-07-20T07:23:23;1.50;;;1.40;;
6953;SDS011;3516;47.980;8.808;2023-07-20T07:25:51;2.40;;;1.48;;
6953;SDS011;3516;47.980;8.808;2023-07-20T07:28:18;1.60;;;1.50;;
6953;SDS011;3516;47.980;8.808;2023-07-20T07:30:45;2.05;;;1.45;;
6953;SDS011;3516;47.980;8.808;2023-07-20T07:33:12;2.08;;;1.33;;
6953;SDS011;3516;47.980;8.808;2023-07-20T07:35:39;1.80;;;1.55;;
6953;SDS011;3516;47.980;8.808;2023-07-20T07:38:20;1.40;;;1.30;;
6953;SDS011;3516;47.980;8.808;2023-07-20T07:40:49;4.72;;;1.70;;
6953;SDS011;3516;47.980;8.808;2023-07-20T07:43:20;1.23;;;1.20;;
6953;SDS011;3516;47.980;8.808;2023-07-20T07:45:48;2.78;;;1.45;;
6953;SDS011;3516;47.980;8.808;2023-07-20T07:48:16;0.90;;;0.90;;
6953;SDS011;3516;47.980;8.808;2023-07-20T07:50:45;1.17;;;1.17;;
6953;SDS011;3516;47.980;8.808;2023-07-20T07:53:12;1.35;;;1.15;;
6953;SDS011;3516;47.980;8.808;2023-07-20T07:55:40;1.73;;;1.40;;
6953;SDS011;3516;47.980;8.808;2023-07-20T07:58:08;1.52;;;1.08;;
6953;SDS011;3516;47.980;8.808;2023-07-20T08:00:37;1.90;;;1.13;;
6953;SDS011;3516;47.980;8.808;2023-07-20T08:03:04;0.95;;;0.95;;
6953;SDS011;3516;47.980;8.808;2023-07-20T08:05:32;1.30;;;1.30;;
6953;SDS011;3516;47.980;8.808;2023-07-20T08:08:00;1.25;;;1.23;;
6953;SDS011;3516;47.980;8.808;2023-07-20T08:10:28;0.85;;;0.85;;
6953;SDS011;3516;47.980;8.808;2023-07-20T08:12:55;0.90;;;0.90;;
6953;SDS011;3516;47.980;8.808;2023-07-20T08:15:23;0.90;;;0.90;;
6953;SDS011;3516;47.980;8.808;2023-07-20T08:17:51;1.48;;;1.38;;
6953;SDS011;3516;47.980;8.808;2023-07-20T08:20:18;1.02;;;1.02;;
6953;SDS011;3516;47.980;8.808;2023-07-20T08:22:51;1.17;;;1.02;;
6953;SDS011;3516;47.980;8.808;2023-07-20T08:25:19;1.05;;;1.05;;
6953;SDS011;3516;47.980;8.808;2023-07-20T08:27:47;1.55;;;1.25;;
6953;SDS011;3516;47.980;8.808;2023-07-20T08:30:14;1.23;;;1.23;;
6953;SDS011;3516;47.980;8.808;2023-07-20T08:32:42;1.27;;;1.17;;
6953;SDS011;3516;47.980;8.808;2023-07-20T08:35:10;1.30;;;1.20;;
6953;SDS011;3516;47.980;8.808;2023-07-20T08:37:37;5.70;;;2.30;;
6953;SDS011;3516;47.980;8.808;2023-07-20T08:40:05;2.50;;;1.50;;
6953;SDS011;3516;47.980;8.808;2023-07-20T08:42:34;1.55;;;1.45;;
6953;SDS011;3516;47.980;8.808;2023-07-20T08:45:02;2.83;;;1.50;;
6953;SDS011;3516;47.980;8.808;2023-07-20T08:47:30;1.48;;;1.35;;
6953;SDS011;3516;47.980;8.808;2023-07-20T08:49:57;1.63;;;1.50;;
6953;SDS011;3516;47.980;8.808;2023-07-20T08:52:28;1.20;;;1.20;;
6953;SDS011;3516;47.980;8.808;2023-07-20T08:54:55;1.10;;;1.02;;
6953;SDS011;3516;47.980;8.808;2023-07-20T08:57:22;1.65;;;1.30;;
6953;SDS011;3516;47.980;8.808;2023-07-20T08:59:49;1.30;;;1.20;;
6953;SDS011;3516;47.980;8.808;2023-07-20T09:02:17;1.20;;;1.20;;
6953;SDS011;3516;47.980;8.808;2023-07-20T09:04:48;1.67;;;1.20;;
6953;SDS011;3516;47.980;8.808;2023-07-20T09:07:22;1.38;;;1.38;;
6953;SDS011;3516;47.980;8.808;2023-07-20T09:09:51;1.77;;;1.35;;
6953;SDS011;3516;47.980;8.808;2023-07-20T09:12:18;1.75;;;1.63;;
6953;SDS011;3516;47.980;8.808;2023-07-20T09:14:46;5.63;;;2.42;;
6953;SDS011;3516;47.980;8.808;2023-07-20T09:17:13;1.58;;;1.48;;
6953;SDS011;3516;47.980;8.808;2023-07-20T09:19:47;1.83;;;1.73;;
6953;SDS011;3516;47.980;8.808;2023-07-20T09:22:20;1.50;;;1.40;;
6953;SDS011;3516;47.980;8.808;2023-07-20T09:24:49;1.13;;;1.13;;
6953;SDS011;3516;47.980;8.808;2023-07-20T09:27:23;1.40;;;1.30;;
6953;SDS011;3516;47.980;8.808;2023-07-20T09:29:58;1.55;;;1.48;;
6953;SDS011;3516;47.980;8.808;2023-07-20T09:32:34;1.40;;;1.40;;
6953;SDS011;3516;47.980;8.808;2023-07-20T09:35:50;1.75;;;1.33;;
6953;SDS011;3516;47.980;8.808;2023-07-20T09:38:52;1.33;;;1.20;;
6953;SDS011;3516;47.980;8.808;2023-07-20T09:41:46;1.25;;;1.25;;
6953;SDS011;3516;47.980;8.808;2023-07-20T09:44:24;1.10;;;1.10;;
6953;SDS011;3516;47.980;8.808;2023-07-20T09:47:03;1.00;;;1.00;;
6953;SDS011;3516;47.980;8.808;2023-07-20T09:49:40;0.80;;;0.80;;
6953;SDS011;3516;47.980;8.808;2023-07-20T09:52:12;0.93;;;0.93;;
6953;SDS011;3516;47.980;8.808;2023-07-20T09:54:47;1.00;;;1.00;;
6953;SDS011;3516;47.980;8.808;2023-07-20T09:57:24;1.20;;;1.20;;
6953;SDS011;3516;47.980;8.808;2023-07-20T10:00:07;1.48;;;1.10;;
6953;SDS011;3516;47.980;8.808;2023-07-20T10:02:47;1.25;;;1.00;;
6953;SDS011;3516;47.980;8.808;2023-07-20T10:05:33;0.93;;;0.93;;
6953;SDS011;3516;47.980;8.808;2023-07-20T10:08:24;1.30;;;1.30;;
6953;SDS011;3516;47.980;8.808;2023-07-20T10:11:15;2.05;;;1.40;;
6953;SDS011;3516;47.980;8.808;2023-07-20T10:14:25;2.72;;;1.90;;
6953;SDS011;3516;47.980;8.808;2023-07-20T10:17:43;3.05;;;1.77;;
6953;SDS011;3516;47.980;8.808;2023-07-20T10:20:14;1.60;;;1.48;;
6953;SDS011;3516;47.980;8.808;2023-07-20T10:23:28;1.45;;;1.35;;
6953;SDS011;3516;47.980;8.808;2023-07-20T10:25:57;1.20;;;1.10;;
6953;SDS011;3516;47.980;8.808;2023-07-20T10:29:09;2.40;;;1.60;;
6953;SDS011;3516;47.980;8.808;2023-07-20T10:32:22;1.65;;;1.55;;
6953;SDS011;3516;47.980;8.808;2023-07-20T10:39:02;1.30;;;1.30;;
6953;SDS011;3516;47.980;8.808;2023-07-20T10:42:15;3.00;;;1.50;;
6953;SDS011;3516;47.980;8.808;2023-07-20T10:44:44;1.40;;;1.40;;
6953;SDS011;3516;47.980;8.808;2023-07-20T10:47:55;1.52;;;1.42;;
6953;SDS011;3516;47.980;8.808;2023-07-20T10:51:11;1.40;;;1.30;;
6953;SDS011;3516;47.980;8.808;2023-07-20T10:54:36;1.58;;;1.48;;
6953;SDS011;3516;47.980;8.808;2023-07-20T10:58:07;1.33;;;1.23;;
6953;SDS011;3516;47.980;8.808;2023-07-20T11:01:19;1.05;;;1.05;;
6953;SDS011;3516;47.980;8.808;2023-07-20T11:04:37;1.55;;;1.55;;
6953;SDS011;3516;47.980;8.808;2023-07-20T11:07:49;2.15;;;1.25;;
6953;SDS011;3516;47.980;8.808;2023-07-20T11:14:28;1.50;;;1.40;;
6953;SDS011;3516;47.980;8.808;2023-07-20T11:17:39;1.40;;;1.30;;
6953;SDS011;3516;47.980;8.808;2023-07-20T11:20:51;1.50;;;1.40;;
6953;SDS011;3516;47.980;8.808;2023-07-20T11:23:52;1.40;;;1.30;;
6953;SDS011;3516;47.980;8.808;2023-07-20T11:26:19;1.60;;;1.50;;
6953;SDS011;3516;47.980;8.808;2023-07-20T11:29:35;1.20;;;1.20;;
6953;SDS011;3516;47.980;8.808;2023-07-20T11:32:02;1.00;;;1.00;;
6953;SDS011;3516;47.980;8.808;2023-07-20T11:35:15;3.08;;;1.10;;
6953;SDS011;3516;47.980;8.808;2023-07-20T11:38:30;1.00;;;1.00;;
6953;SDS011;3516;47.980;8.808;2023-07-20T11:40:57;1.25;;;1.20;;
6953;SDS011;3516;47.980;8.808;2023-07-20T11:44:08;0.82;;;0.82;;
6953;SDS011;3516;47.980;8.808;2023-07-20T11:47:28;0.90;;;0.90;;
6953;SDS011;3516;47.980;8.808;2023-07-20T11:50:03;1.23;;;1.23;;
6953;SDS011;3516;47.980;8.808;2023-07-20T11:52:30;1.30;;;1.20;;
6953;SDS011;3516;47.980;8.808;2023-07-20T11:55:42;1.40;;;1.40;;
6953;SDS011;3516;47.980;8.808;2023-07-20T11:58:56;0.82;;;0.82;;
6953;SDS011;3516;47.980;8.808;2023-07-20T12:02:10;1.35;;;1.15;;
6953;SDS011;3516;47.980;8.808;2023-07-20T12:04:38;1.15;;;1.10;;
6953;SDS011;3516;47.980;8.808;2023-07-20T12:07:18;1.98;;;1.27;;
6953;SDS011;3516;47.980;8.808;2023-07-20T12:09:45;1.30;;;1.23;;
6953;SDS011;3516;47.980;8.808;2023-07-20T12:13:00;1.10;;;1.10;;
6953;SDS011;3516;47.980;8.808;2023-07-20T12:16:11;1.15;;;1.05;;
6953;SDS011;3516;47.980;8.808;2023-07-20T12:19:20;1.20;;;1.20;;
6953;SDS011;3516;47.980;8.808;2023-07-20T12:22:32;1.10;;;1.10;;
6953;SDS011;3516;47.980;8.808;2023-07-20T12:25:47;1.10;;;1.10;;
6953;SDS011;3516;47.980;8.808;2023-07-20T12:28:58;1.10;;;1.10;;
6953;SDS011;3516;47.980;8.808;2023-07-20T12:32:08;1.08;;;1.08;;
6953;SDS011;3516;47.980;8.808;2023-07-20T12:35:19;1.10;;;1.00;;
6953;SDS011;3516;47.980;8.808;2023-07-20T12:38:31;1.27;;;1.17;;
6953;SDS011;3516;47.980;8.808;2023-07-20T12:41:43;2.15;;;1.38;;
6953;SDS011;3516;47.980;8.808;2023-07-20T12:44:10;0.80;;;0.80;;
6953;SDS011;3516;47.980;8.808;2023-07-20T12:47:19;0.90;;;0.90;;
6953;SDS011;3516;47.980;8.808;2023-07-20T12:50:30;1.60;;;1.30;;
6953;SDS011;3516;47.980;8.808;2023-07-20T12:53:45;2.22;;;1.08;;
6953;SDS011;3516;47.980;8.808;2023-07-20T12:56:12;1.20;;;1.20;;
6953;SDS011;3516;47.980;8.808;2023-07-20T12:58:39;1.10;;;1.10;;
6953;SDS011;3516;47.980;8.808;2023-07-20T13:01:06;0.95;;;0.90;;
6953;SDS011;3516;47.980;8.808;2023-07-20T13:03:33;3.67;;;0.98;;
6953;SDS011;3516;47.980;8.808;2023-07-20T13:06:00;1.27;;;1.27;;
6953;SDS011;3516;47.980;8.808;2023-07-20T13:08:36;1.13;;;1.13;;
6953;SDS011;3516;47.980;8.808;2023-07-20T13:11:05;1.13;;;1.00;;
6953;SDS011;3516;47.980;8.808;2023-07-20T13:13:32;2.63;;;1.20;;
6953;SDS011;3516;47.980;8.808;2023-07-20T13:15:59;1.00;;;1.00;;
6953;SDS011;3516;47.980;8.808;2023-07-20T13:18:26;1.38;;;1.27;;
6953;SDS011;3516;47.980;8.808;2023-07-20T13:20:54;0.90;;;0.90;;
6953;SDS011;3516;47.980;8.808;2023-07-20T13:23:21;1.10;;;1.10;;
6953;SDS011;3516;47.980;8.808;2023-07-20T13:26:31;0.80;;;0.80;;
6953;SDS011;3516;47.980;8.808;2023-07-20T13:28:59;2.38;;;1.20;;
6953;SDS011;3516;47.980;8.808;2023-07-20T13:31:26;2.08;;;1.10;;
6953;SDS011;3516;47.980;8.808;2023-07-20T13:33:53;1.08;;;1.08;;
6953;SDS011;3516;47.980;8.808;2023-07-20T13:36:21;0.90;;;0.90;;
6953;SDS011;3516;47.980;8.808;2023-07-20T13:38:53;0.90;;;0.90;;
6953;SDS011;3516;47.980;8.808;2023-07-20T13:41:21;0.90;;;0.90;;
6953;SDS011;3516;47.980;8.808;2023-07-20T13:43:49;0.90;;;0.90;;
6953;SDS011;3516;47.980;8.808;2023-07-20T13:46:23;0.80;;;0.80;;
6953;SDS011;3516;47.980;8.808;2023-07-20T13:49:01;0.90;;;0.90;;
6953;SDS011;3516;47.980;8.808;2023-07-20T13:52:13;0.77;;;0.77;;
6953;SDS011;3516;47.980;8.808;2023-07-20T13:54:40;0.98;;;0.98;;
6953;SDS011;3516;47.980;8.808;2023-07-20T13:57:07;0.77;;;0.77;;
6953;SDS011;3516;47.980;8.808;2023-07-20T13:59:41;0.80;;;0.80;;
6953;SDS011;3516;47.980;8.808;2023-07-20T14:02:15;1.00;;;1.00;;
6953;SDS011;3516;47.980;8.808;2023-07-20T14:04:42;0.95;;;0.85;;
6953;SDS011;3516;47.980;8.808;2023-07-20T14:07:15;0.90;;;0.90;;
6953;SDS011;3516;47.980;8.808;2023-07-20T14:09:54;1.10;;;1.10;;
6953;SDS011;3516;47.980;8.808;2023-07-20T14:13:03;2.33;;;1.10;;
6953;SDS011;3516;47.980;8.808;2023-07-20T14:16:14;1.45;;;1.40;;
6953;SDS011;3516;47.980;8.808;2023-07-20T14:18:51;1.48;;;1.15;;
6953;SDS011;3516;47.980;8.808;2023-07-20T14:21:19;3.15;;;1.20;;
6953;SDS011;3516;47.980;8.808;2023-07-20T14:23:47;1.10;;;1.10;;
6953;SDS011;3516;47.980;8.808;2023-07-20T14:26:14;1.20;;;1.20;;
6953;SDS011;3516;47.980;8.808;2023-07-20T14:28:41;1.27;;;1.20;;
6953;SDS011;3516;47.980;8.808;2023-07-20T14:31:08;1.30;;;1.23;;
6953;SDS011;3516;47.980;8.808;2023-07-20T14:33:36;0.98;;;0.98;;
6953;SDS011;3516;47.980;8.808;2023-07-20T14:36:04;0.90;;;0.90;;
6953;SDS011;3516;47.980;8.808;2023-07-20T14:38:31;1.40;;;1.15;;
6953;SDS011;3516;47.980;8.808;2023-07-20T14:40:58;1.08;;;1.08;;
6953;SDS011;3516;47.980;8.808;2023-07-20T14:43:25;1.25;;;1.25;;
6953;SDS011;3516;47.980;8.808;2023-07-20T14:45:52;1.15;;;1.15;;
6953;SDS011;3516;47.980;8.808;2023-07-20T14:48:20;1.27;;;1.17;;
6953;SDS011;3516;47.980;8.808;2023-07-20T14:50:48;1.30;;;1.20;;
6953;SDS011;3516;47.980;8.808;2023-07-20T14:53:15;1.42;;;1.33;;
6953;SDS011;3516;47.980;8.808;2023-07-20T14:55:42;3.80;;;1.25;;
6953;SDS011;3516;47.980;8.808;2023-07-20T14:58:09;1.10;;;1.10;;
6953;SDS011;3516;47.980;8.808;2023-07-20T15:00:37;1.05;;;1.00;;
6953;SDS011;3516;47.980;8.808;2023-07-20T15:03:04;1.20;;;1.20;;
6953;SDS011;3516;47.980;8.808;2023-07-20T15:05:31;1.20;;;1.20;;
6953;SDS011;3516;47.980;8.808;2023-07-20T15:08:01;1.20;;;1.20;;
6953;SDS011;3516;47.980;8.808;2023-07-20T15:10:28;0.82;;;0.82;;
6953;SDS011;3516;47.980;8.808;2023-07-20T15:12:55;0.73;;;0.73;;
6953;SDS011;3516;47.980;8.808;2023-07-20T15:15:22;1.65;;;1.17;;
6953;SDS011;3516;47.980;8.808;2023-07-20T15:17:49;1.40;;;1.40;;
6953;SDS011;3516;47.980;8.808;2023-07-20T15:20:16;1.85;;;1.75;;
6953;SDS011;3516;47.980;8.808;2023-07-20T15:22:43;1.73;;;1.65;;
6953;SDS011;3516;47.980;8.808;2023-07-20T15:25:12;1.50;;;1.40;;
6953;SDS011;3516;47.980;8.808;2023-07-20T15:27:39;1.15;;;1.15;;
6953;SDS011;3516;47.980;8.808;2023-07-20T15:30:08;2.83;;;1.45;;
6953;SDS011;3516;47.980;8.808;2023-07-20T15:32:35;1.05;;;1.05;;
6953;SDS011;3516;47.980;8.808;2023-07-20T15:35:02;1.08;;;1.08;;
6953;SDS011;3516;47.980;8.808;2023-07-20T15:37:31;1.02;;;1.00;;
6953;SDS011;3516;47.980;8.808;2023-07-20T15:39:58;1.13;;;1.13;;
6953;SDS011;3516;47.980;8.808;2023-07-20T15:42:29;1.45;;;1.35;;
6953;SDS011;3516;47.980;8.808;2023-07-20T15:44:56;1.13;;;1.10;;
6953;SDS011;3516;47.980;8.808;2023-07-20T15:47:23;1.20;;;1.20;;
6953;SDS011;3516;47.980;8.808;2023-07-20T15:49:51;1.40;;;1.30;;
6953;SDS011;3516;47.980;8.808;2023-07-20T15:52:18;1.27;;;1.02;;
6953;SDS011;3516;47.980;8.808;2023-07-20T15:54:45;1.30;;;1.20;;
6953;SDS011;3516;47.980;8.808;2023-07-20T15:57:12;4.85;;;1.40;;
6953;SDS011;3516;47.980;8.808;2023-07-20T15:59:40;1.73;;;1.63;;
6953;SDS011;3516;47.980;8.808;2023-07-20T16:02:07;1.35;;;1.25;;
6953;SDS011;3516;47.980;8.808;2023-07-20T16:04:34;2.28;;;1.40;;
6953;SDS011;3516;47.980;8.808;2023-07-20T16:07:01;1.67;;;1.50;;
6953;SDS011;3516;47.980;8.808;2023-07-20T16:09:28;2.05;;;1.40;;
6953;SDS011;3516;47.980;8.808;2023-07-20T16:11:56;1.23;;;1.20;;
6953;SDS011;3516;47.980;8.808;2023-07-20T16:14:23;2.97;;;1.30;;
6953;SDS011;3516;47.980;8.808;2023-07-20T16:16:51;1.33;;;1.30;;
6953;SDS011;3516;47.980;8.808;2023-07-20T16:19:18;3.67;;;1.25;;
6953;SDS011;3516;47.980;8.808;2023-07-20T16:21:45;1.42;;;1.33;;
6953;SDS011;3516;47.980;8.808;2023-07-20T16:24:12;1.25;;;1.25;;
6953;SDS011;3516;47.980;8.808;2023-07-20T16:26:41;1.55;;;1.45;;
6953;SDS011;3516;47.980;8.808;2023-07-20T16:29:09;1.38;;;1.15;;
6953;SDS011;3516;47.980;8.808;2023-07-20T16:31:36;1.65;;;1.55;;
6953;SDS011;3516;47.980;8.808;2023-07-20T16:34:04;1.20;;;1.20;;
6953;SDS011;3516;47.980;8.808;2023-07-20T16:36:31;1.52;;;1.48;;
6953;SDS011;3516;47.980;8.808;2023-07-20T16:39:00;1.08;;;1.08;;
6953;SDS011;3516;47.980;8.808;2023-07-20T16:41:28;1.52;;;1.50;;
6953;SDS011;3516;47.980;8.808;2023-07-20T16:43:55;2.40;;;1.48;;
6953;SDS011;3516;47.980;8.808;2023-07-20T16:46:22;1.60;;;1.50;;
6953;SDS011;3516;47.980;8.808;2023-07-20T16:48:50;2.22;;;1.40;;
6953;SDS011;3516;47.980;8.808;2023-07-20T16:51:18;1.33;;;1.23;;
6953;SDS011;3516;47.980;8.808;2023-07-20T16:53:48;1.65;;;1.55;;
6953;SDS011;3516;47.980;8.808;2023-07-20T16:56:15;1.50;;;1.50;;
6953;SDS011;3516;47.980;8.808;2023-07-20T16:58:42;1.42;;;1.33;;
6953;SDS011;3516;47.980;8.808;2023-07-20T17:01:09;1.27;;;1.27;;
6953;SDS011;3516;47.980;8.808;2023-07-20T17:03:36;1.77;;;1.50;;
6953;SDS011;3516;47.980;8.808;2023-07-20T17:06:04;1.20;;;1.10;;
6953;SDS011;3516;47.980;8.808;2023-07-20T17:08:33;1.90;;;1.75;;
6953;SDS011;3516;47.980;8.808;2023-07-20T17:11:00;1.35;;;1.25;;
6953;SDS011;3516;47.980;8.808;2023-07-20T17:13:28;1.20;;;1.20;;
6953;SDS011;3516;47.980;8.808;2023-07-20T17:16:37;1.40;;;1.33;;
6953;SDS011;3516;47.980;8.808;2023-07-20T17:19:47;1.25;;;1.25;;
6953;SDS011;3516;47.980;8.808;2023-07-20T17:22:58;3.05;;;1.55;;
6953;SDS011;3516;47.980;8.808;2023-07-20T17:26:11;2.83;;;1.55;;
6953;SDS011;3516;47.980;8.808;2023-07-20T17:29:23;1.63;;;1.52;;
6953;SDS011;3516;47.980;8.808;2023-07-20T17:32:36;1.33;;;1.23;;
6953;SDS011;3516;47.980;8.808;2023-07-20T17:35:16;1.08;;;1.08;;
6953;SDS011;3516;47.980;8.808;2023-07-20T17:37:45;1.17;;;1.17;;
6953;SDS011;3516;47.980;8.808;2023-07-20T17:40:13;1.20;;;1.20;;
6953;SDS011;3516;47.980;8.808;2023-07-20T17:42:44;1.15;;;1.15;;
6953;SDS011;3516;47.980;8.808;2023-07-20T17:45:14;1.00;;;1.00;;
6953;SDS011;3516;47.980;8.808;2023-07-20T17:47:42;0.90;;;0.90;;
6953;SDS011;3516;47.980;8.808;2023-07-20T17:50:09;1.10;;;1.10;;
6953;SDS011;3516;47.980;8.808;2023-07-20T17:52:37;1.27;;;1.27;;
6953;SDS011;3516;47.980;8.808;2023-07-20T17:55:04;1.25;;;1.25;;
6953;SDS011;3516;47.980;8.808;2023-07-20T17:57:32;1.05;;;1.05;;
6953;SDS011;3516;47.980;8.808;2023-07-20T18:00:00;0.95;;;0.95;;
6953;SDS011;3516;47.980;8.808;2023-07-20T18:02:28;1.05;;;1.05;;
6953;SDS011;3516;47.980;8.808;2023-07-20T18:04:56;0.90;;;0.90;;
6953;SDS011;3516;47.980;8.808;2023-07-20T18:07:23;1.02;;;1.02;;
6953;SDS011;3516;47.980;8.808;2023-07-20T18:09:50;1.10;;;1.10;;
6953;SDS011;3516;47.980;8.808;2023-07-20T18:12:17;1.20;;;1.20;;
6953;SDS011;3516;47.980;8.808;2023-07-20T18:14:44;1.25;;;1.25;;
6953;SDS011;3516;47.980;8.808;2023-07-20T18:17:12;1.15;;;1.15;;
6953;SDS011;3516;47.980;8.808;2023-07-20T18:19:39;1.58;;;1.58;;
6953;SDS011;3516;47.980;8.808;2023-07-20T18:22:08;1.45;;;1.45;;
6953;SDS011;3516;47.980;8.808;2023-07-20T18:24:35;1.50;;;1.40;;
6953;SDS011;3516;47.980;8.808;2023-07-20T18:27:02;1.20;;;1.20;;
6953;SDS011;3516;47.980;8.808;2023-07-20T18:29:29;1.35;;;1.35;;
6953;SDS011;3516;47.980;8.808;2023-07-20T18:31:56;1.25;;;1.25;;
6953;SDS011;3516;47.980;8.808;2023-07-20T18:34:24;1.38;;;1.38;;
6953;SDS011;3516;47.980;8.808;2023-07-20T18:36:52;1.17;;;1.13;;
6953;SDS011;3516;47.980;8.808;2023-07-20T18:39:19;1.20;;;1.20;;
6953;SDS011;3516;47.980;8.808;2023-07-20T18:41:46;1.00;;;1.00;;
6953;SDS011;3516;47.980;8.808;2023-07-20T18:44:18;1.10;;;1.10;;
6953;SDS011;3516;47.980;8.808;2023-07-20T18:46:46;1.23;;;1.23;;
6953;SDS011;3516;47.980;8.808;2023-07-20T18:49:14;0.90;;;0.90;;
6953;SDS011;3516;47.980;8.808;2023-07-20T18:51:44;1.17;;;1.17;;
6953;SDS011;3516;47.980;8.808;2023-07-20T18:54:13;1.52;;;1.42;;
6953;SDS011;3516;47.980;8.808;2023-07-20T18:56:42;1.20;;;1.20;;
6953;SDS011;3516;47.980;8.808;2023-07-20T18:59:11;1.52;;;1.20;;
6953;SDS011;3516;47.980;8.808;2023-07-20T19:01:50;1.42;;;1.33;;
6953;SDS011;3516;47.980;8.808;2023-07-20T19:04:18;1.13;;;1.13;;
6953;SDS011;3516;47.980;8.808;2023-07-20T19:06:48;1.00;;;1.00;;
6953;SDS011;3516;47.980;8.808;2023-07-20T19:09:15;1.33;;;1.30;;
6953;SDS011;3516;47.980;8.808;2023-07-20T19:11:42;1.08;;;1.08;;
6953;SDS011;3516;47.980;8.808;2023-07-20T19:14:09;1.50;;;1.50;;
6953;SDS011;3516;47.980;8.808;2023-07-20T19:16:37;1.30;;;1.30;;
6953;SDS011;3516;47.980;8.808;2023-07-20T19:19:05;1.10;;;1.10;;
6953;SDS011;3516;47.980;8.808;2023-07-20T19:21:33;1.30;;;1.30;;
6953;SDS011;3516;47.980;8.808;2023-07-20T19:24:05;1.20;;;1.20;;
6953;SDS011;3516;47.980;8.808;2023-07-20T19:26:32;2.20;;;1.38;;
6953;SDS011;3516;47.980;8.808;2023-07-20T19:28:59;1.27;;;1.20;;
6953;SDS011;3516;47.980;8.808;2023-07-20T19:31:26;1.17;;;1.08;;
6953;SDS011;3516;47.980;8.808;2023-07-20T19:33:53;1.13;;;1.13;;
6953;SDS011;3516;47.980;8.808;2023-07-20T19:36:22;1.20;;;1.20;;
6953;SDS011;3516;47.980;8.808;2023-07-20T19:38:51;0.93;;;0.93;;
6953;SDS011;3516;47.980;8.808;2023-07-20T19:41:20;1.17;;;1.17;;
6953;SDS011;3516;47.980;8.808;2023-07-20T19:43:48;1.20;;;1.20;;
6953;SDS011;3516;47.980;8.808;2023-07-20T19:46:16;1.23;;;1.20;;
6953;SDS011;3516;47.980;8.808;2023-07-20T19:48:44;2.20;;;1.00;;
6953;SDS011;3516;47.980;8.808;2023-07-20T19:51:12;0.98;;;0.98;;
6953;SDS011;3516;47.980;8.808;2023-07-20T19:53:41;1.58;;;1.58;;
6953;SDS011;3516;47.980;8.808;2023-07-20T19:56:08;1.30;;;1.30;;
6953;SDS011;3516;47.980;8.808;2023-07-20T19:58:36;1.38;;;1.38;;
6953;SDS011;3516;47.980;8.808;2023-07-20T20:01:06;1.30;;;1.30;;
6953;SDS011;3516;47.980;8.808;2023-07-20T20:03:36;1.17;;;1.17;;
6953;SDS011;3516;47.980;8.808;2023-07-20T20:06:07;1.20;;;1.20;;
6953;SDS011;3516;47.980;8.808;2023-07-20T20:08:48;1.38;;;1.27;;
6953;SDS011;3516;47.980;8.808;2023-07-20T20:11:15;1.15;;;1.15;;
6953;SDS011;3516;47.980;8.808;2023-07-20T20:13:49;1.08;;;1.08;;
6953;SDS011;3516;47.980;8.808;2023-07-20T20:16:20;1.08;;;1.08;;
6953;SDS011;3516;47.980;8.808;2023-07-20T20:18:50;1.17;;;1.17;;
6953;SDS011;3516;47.980;8.808;2023-07-20T20:21:20;1.00;;;1.00;;
6953;SDS011;3516;47.980;8.808;2023-07-20T20:23:51;1.10;;;1.10;;